createdAt,value
2023-07-06T00:01:38.426Z,17.11
2023-07-06T00:03:40.571Z,17.34
2023-07-06T00:05:46.356Z,17.11
2023-07-06T00:07:48.380Z,17.25
2023-07-06T00:09:50.946Z,17.29
2023-07-06T00:11:53.041Z,17.28
2023-07-06T00:13:55.210Z,17.18
2023-07-06T00:15:57.447Z,17.12
2023-07-06T00:17:59.821Z,17.18
2023-07-06T00:20:01.929Z,17.25
2023-07-06T00:22:04.086Z,17.29
2023-07-06T00:24:06.855Z,17.29
2023-07-06T00:26:09.697Z,17.33
2023-07-06T00:28:15.559Z,17.36
2023-07-06T00:30:19.790Z,17.13
2023-07-06T00:32:31.458Z,17.23
2023-07-06T00:34:35.588Z,17.18
2023-07-06T00:36:38.847Z,17.26
2023-07-06T00:38:41.502Z,17.28
2023-07-06T00:40:46.955Z,17.23
2023-07-06T00:42:49.059Z,17.14
2023-07-06T00:44:56.097Z,17.17
2023-07-06T00:46:58.173Z,17.23
2023-07-06T00:49:02.778Z,17.20
2023-07-06T00:51:10.956Z,17.27
2023-07-06T00:53:18.016Z,17.32
2023-07-06T00:55:29.057Z,17.28
2023-07-06T00:57:33.996Z,17.12
2023-07-06T00:59:40.405Z,17.19
2023-07-06T01:01:46.738Z,17.17
2023-07-06T01:03:53.766Z,17.08
2023-07-06T01:06:01.523Z,17.07
2023-07-06T01:08:09.255Z,16.93
2023-07-06T01:10:11.244Z,17.00
2023-07-06T01:12:13.826Z,16.90
2023-07-06T01:14:16.064Z,16.76
2023-07-06T01:16:29.812Z,16.91
2023-07-06T01:18:38.175Z,16.76
2023-07-06T01:20:47.616Z,16.78
2023-07-06T01:23:08.694Z,16.85
2023-07-06T01:25:22.044Z,16.75
2023-07-06T01:27:43.748Z,16.80
2023-07-06T01:30:04.830Z,16.83
2023-07-06T01:32:14.623Z,16.76
2023-07-06T01:34:27.309Z,16.80
2023-07-06T01:36:40.664Z,16.81
2023-07-06T01:38:43.108Z,16.77
2023-07-06T01:40:45.216Z,16.72
2023-07-06T01:42:47.247Z,16.78
2023-07-06T01:44:49.397Z,16.82
2023-07-06T01:46:54.973Z,16.79
2023-07-06T01:48:57.007Z,16.71
2023-07-06T01:51:12.552Z,16.79
2023-07-06T01:53:22.960Z,16.80
2023-07-06T01:55:33.185Z,16.78
2023-07-06T01:57:59.678Z,16.77
2023-07-06T02:00:10.805Z,16.75
2023-07-06T02:02:12.984Z,16.72
2023-07-06T02:04:16.382Z,16.71
2023-07-06T02:06:19.437Z,16.67
2023-07-06T02:08:21.678Z,16.62
2023-07-06T02:10:23.844Z,16.52
2023-07-06T02:12:26.028Z,16.58
2023-07-06T02:14:28.211Z,16.57
2023-07-06T02:16:31.598Z,16.52
2023-07-06T02:18:35.086Z,16.55
2023-07-06T02:20:36.961Z,16.41
2023-07-06T02:22:41.104Z,16.53
2023-07-06T02:24:44.971Z,16.43
2023-07-06T02:26:47.375Z,16.56
2023-07-06T02:28:49.339Z,16.45
2023-07-06T02:30:54.305Z,16.51
2023-07-06T02:32:56.611Z,16.47
2023-07-06T02:34:59.276Z,16.27
2023-07-06T02:37:01.151Z,16.42
2023-07-06T02:39:04.759Z,16.42
2023-07-06T02:41:07.213Z,16.37
2023-07-06T02:43:09.566Z,16.22
2023-07-06T02:45:12.107Z,16.09
2023-07-06T02:47:14.423Z,16.06
2023-07-06T02:49:18.074Z,16.02
2023-07-06T02:51:20.143Z,16.05
2023-07-06T02:53:22.307Z,16.14
2023-07-06T02:55:24.752Z,16.22
2023-07-06T02:57:26.834Z,16.15
2023-07-06T02:59:31.376Z,15.91
2023-07-06T03:01:35.323Z,16.08
2023-07-06T03:03:37.894Z,15.76
2023-07-06T03:05:39.811Z,15.97
2023-07-06T03:07:42.705Z,15.81
2023-07-06T03:09:44.703Z,15.83
2023-07-06T03:11:48.854Z,15.84
2023-07-06T03:13:50.842Z,15.98
2023-07-06T03:15:53.076Z,15.81
2023-07-06T03:17:55.298Z,15.92
2023-07-06T03:19:57.814Z,15.87
2023-07-06T03:22:00.427Z,15.83
2023-07-06T03:24:02.699Z,15.91
2023-07-06T03:26:04.756Z,15.76
2023-07-06T03:28:06.661Z,15.73
2023-07-06T03:30:11.587Z,15.80
2023-07-06T03:32:13.641Z,15.86
2023-07-06T03:34:15.537Z,15.61
2023-07-06T03:36:18.288Z,15.79
2023-07-06T03:38:21.843Z,15.84
2023-07-06T03:40:25.961Z,15.68
2023-07-06T03:42:27.920Z,15.67
2023-07-06T03:44:29.904Z,15.60
2023-07-06T03:46:35.892Z,15.55
2023-07-06T03:48:38.228Z,15.66
2023-07-06T03:50:40.135Z,15.66
2023-07-06T03:52:43.412Z,15.64
2023-07-06T03:54:47.436Z,15.66
2023-07-06T03:56:49.967Z,15.51
2023-07-06T03:58:52.870Z,15.63
2023-07-06T04:00:57.678Z,15.65
2023-07-06T04:03:05.561Z,15.69
2023-07-06T04:05:09.984Z,15.78
2023-07-06T04:07:12.129Z,15.66
2023-07-06T04:09:14.338Z,15.62
2023-07-06T04:11:16.196Z,15.68
2023-07-06T04:13:18.426Z,15.74
2023-07-06T04:15:22.320Z,15.51
2023-07-06T04:17:24.406Z,15.45
2023-07-06T04:19:26.643Z,15.38
2023-07-06T04:21:29.660Z,15.35
2023-07-06T04:23:31.730Z,15.41
2023-07-06T04:25:35.613Z,15.38
2023-07-06T04:27:37.597Z,15.24
2023-07-06T04:29:39.589Z,15.37
2023-07-06T04:31:41.997Z,15.23
2023-07-06T04:33:47.523Z,15.32
2023-07-06T04:35:54.616Z,15.27
2023-07-06T04:37:56.688Z,15.39
2023-07-06T04:39:58.857Z,15.47
2023-07-06T04:42:00.808Z,15.36
2023-07-06T04:44:02.922Z,15.48
2023-07-06T04:46:05.218Z,15.25
2023-07-06T04:48:08.613Z,15.25
2023-07-06T04:50:13.372Z,15.39
2023-07-06T04:52:15.788Z,15.18
2023-07-06T04:54:18.426Z,15.28
2023-07-06T04:56:20.550Z,15.28
2023-07-06T04:58:22.471Z,15.28
2023-07-06T05:00:30.000Z,15.24
2023-07-06T05:02:33.899Z,15.31
2023-07-06T05:04:36.474Z,15.29
2023-07-06T05:06:38.461Z,15.23
2023-07-06T05:08:44.789Z,15.21
2023-07-06T05:10:52.328Z,15.16
2023-07-06T05:12:57.335Z,15.33
2023-07-06T05:14:59.240Z,15.29
2023-07-06T05:17:02.308Z,15.40
2023-07-06T05:19:04.457Z,15.42
2023-07-06T05:21:06.372Z,15.36
2023-07-06T05:23:09.507Z,15.45
2023-07-06T05:25:12.066Z,15.52
2023-07-06T05:27:14.010Z,15.52
2023-07-06T05:29:16.049Z,15.62
2023-07-06T05:31:18.131Z,15.69
2023-07-06T05:33:20.115Z,15.63
2023-07-06T05:35:24.734Z,15.53
2023-07-06T05:37:35.405Z,15.38
2023-07-06T05:39:38.456Z,15.48
2023-07-06T05:41:40.551Z,15.48
2023-07-06T05:43:42.474Z,15.43
2023-07-06T05:45:47.727Z,15.68
2023-07-06T05:47:49.840Z,15.63
2023-07-06T05:49:51.855Z,15.72
2023-07-06T05:51:53.997Z,15.85
2023-07-06T05:53:56.069Z,15.86
2023-07-06T05:55:58.273Z,15.88
2023-07-06T05:58:00.676Z,15.92
2023-07-06T06:00:03.289Z,15.96
2023-07-06T06:02:05.926Z,16.03
2023-07-06T06:04:09.120Z,16.09
2023-07-06T06:06:12.390Z,16.24
2023-07-06T06:08:14.336Z,16.33
2023-07-06T06:10:16.562Z,16.29
2023-07-06T06:12:20.497Z,16.23
2023-07-06T06:14:22.779Z,16.21
2023-07-06T06:16:24.709Z,16.34
2023-07-06T06:18:29.839Z,16.41
2023-07-06T06:20:32.212Z,16.39
2023-07-06T06:22:35.228Z,16.45
2023-07-06T06:24:37.388Z,16.56
2023-07-06T06:26:44.196Z,16.62
2023-07-06T06:28:46.453Z,16.60
2023-07-06T06:30:48.489Z,16.69
2023-07-06T06:32:50.536Z,16.79
2023-07-06T06:34:53.859Z,16.81
2023-07-06T06:36:57.157Z,16.87
2023-07-06T06:38:59.435Z,16.82
2023-07-06T06:41:09.180Z,16.79
2023-07-06T06:43:11.179Z,16.95
2023-07-06T06:45:13.362Z,16.90
2023-07-06T06:47:15.499Z,16.89
2023-07-06T06:49:18.483Z,16.81
2023-07-06T06:51:20.563Z,16.81
2023-07-06T06:53:22.647Z,16.90
2023-07-06T06:55:24.723Z,16.86
2023-07-06T06:57:26.801Z,16.92
2023-07-06T06:59:28.902Z,16.93
2023-07-06T07:01:33.047Z,16.93
2023-07-06T07:03:36.059Z,16.98
2023-07-06T07:05:38.151Z,17.17
2023-07-06T07:07:40.478Z,17.20
2023-07-06T07:09:43.069Z,17.05
2023-07-06T07:11:45.230Z,17.22
2023-07-06T07:13:48.765Z,17.21
2023-07-06T07:15:51.651Z,17.40
2023-07-06T07:17:56.985Z,17.42
2023-07-06T07:19:59.267Z,17.46
2023-07-06T07:22:03.785Z,17.23
2023-07-06T07:24:06.797Z,17.34
2023-07-06T07:26:10.826Z,17.37
2023-07-06T07:28:13.148Z,17.43
2023-07-06T07:30:15.257Z,17.51
2023-07-06T07:32:22.312Z,17.60
2023-07-06T07:34:24.473Z,17.63
2023-07-06T07:36:27.328Z,17.50
2023-07-06T07:38:30.476Z,17.66
2023-07-06T07:40:33.872Z,17.69
2023-07-06T07:42:36.115Z,17.85
2023-07-06T07:44:39.630Z,17.82
2023-07-06T07:46:41.737Z,17.99
2023-07-06T07:48:46.810Z,18.00
2023-07-06T07:50:52.084Z,17.99
2023-07-06T07:52:54.160Z,17.92
2023-07-06T07:54:56.301Z,17.92
2023-07-06T07:56:59.013Z,17.85
2023-07-06T07:59:01.493Z,17.96
2023-07-06T08:01:06.935Z,18.05
2023-07-06T08:03:09.875Z,18.06
2023-07-06T08:05:12.092Z,18.11
2023-07-06T08:07:14.328Z,18.18
2023-07-06T08:09:16.389Z,18.07
2023-07-06T08:11:21.971Z,18.29
2023-07-06T08:13:24.386Z,18.08
2023-07-06T08:15:26.571Z,18.24
2023-07-06T08:17:28.904Z,18.21
2023-07-06T08:19:44.261Z,18.39
2023-07-06T08:22:09.107Z,18.34
2023-07-06T08:24:11.923Z,18.40
2023-07-06T08:26:13.901Z,18.52
2023-07-06T08:28:16.094Z,18.63
2023-07-06T08:30:18.384Z,18.59
2023-07-06T08:32:23.712Z,18.69
2023-07-06T08:34:28.456Z,18.78
2023-07-06T08:36:31.475Z,18.75
2023-07-06T08:38:34.183Z,18.58
2023-07-06T08:40:37.188Z,18.82
2023-07-06T08:42:39.270Z,18.89
2023-07-06T08:44:41.332Z,19.00
2023-07-06T08:46:50.234Z,19.11
2023-07-06T08:48:55.273Z,19.19
2023-07-06T08:51:10.413Z,19.10
2023-07-06T08:53:16.043Z,19.10
2023-07-06T08:55:18.998Z,19.28
2023-07-06T08:57:24.698Z,19.05
2023-07-06T08:59:45.710Z,19.10
2023-07-06T09:01:48.544Z,19.12
2023-07-06T09:03:57.073Z,19.24
2023-07-06T09:05:59.600Z,19.18
2023-07-06T09:08:01.808Z,19.24
2023-07-06T09:10:24.118Z,19.07
2023-07-06T09:12:34.241Z,19.22
2023-07-06T09:14:36.406Z,19.37
2023-07-06T09:16:48.978Z,19.37
2023-07-06T09:18:54.669Z,19.43
2023-07-06T09:20:59.647Z,19.43
2023-07-06T09:23:07.577Z,19.46
2023-07-06T09:25:20.949Z,19.62
2023-07-06T09:27:28.867Z,19.62
2023-07-06T09:29:36.219Z,19.66
2023-07-06T09:31:39.740Z,19.65
2023-07-06T09:33:51.216Z,19.56
2023-07-06T09:35:58.234Z,19.75
2023-07-06T09:38:00.580Z,19.80
2023-07-06T09:40:05.240Z,19.95
2023-07-06T09:42:13.844Z,20.01
2023-07-06T09:44:26.362Z,20.03
2023-07-06T09:46:33.837Z,20.04
2023-07-06T09:48:39.354Z,20.13
2023-07-06T09:50:46.306Z,20.19
2023-07-06T09:52:49.435Z,20.29
2023-07-06T09:54:58.000Z,20.34
2023-07-06T09:57:01.938Z,20.26
2023-07-06T09:59:05.362Z,20.27
2023-07-06T10:01:18.832Z,20.29
2023-07-06T10:03:33.902Z,20.42
2023-07-06T10:05:51.462Z,20.36
2023-07-06T10:08:07.413Z,20.55
2023-07-06T10:10:26.664Z,20.34
2023-07-06T10:12:45.660Z,20.09
2023-07-06T10:14:50.983Z,20.32
2023-07-06T10:17:12.264Z,20.40
2023-07-06T10:19:21.885Z,20.39
2023-07-06T10:21:29.664Z,20.32
2023-07-06T10:23:42.916Z,20.28
2023-07-06T10:26:08.383Z,20.46
2023-07-06T10:28:20.052Z,20.54
2023-07-06T10:30:37.392Z,20.30
2023-07-06T10:32:45.514Z,20.59
2023-07-06T10:34:49.390Z,20.55
2023-07-06T10:36:52.560Z,20.59
2023-07-06T10:38:55.644Z,20.54
2023-07-06T10:41:22.551Z,20.49
2023-07-06T10:43:25.206Z,20.26
2023-07-06T10:45:37.569Z,20.40
2023-07-06T10:47:42.488Z,20.25
2023-07-06T10:50:13.881Z,20.21
2023-07-06T10:52:16.529Z,20.31
2023-07-06T10:54:29.592Z,20.36
2023-07-06T10:56:47.348Z,20.33
2023-07-06T10:58:56.955Z,20.35
2023-07-06T11:01:01.674Z,20.31
2023-07-06T11:03:05.524Z,20.34
2023-07-06T11:05:17.329Z,20.34
2023-07-06T11:07:39.796Z,20.78
2023-07-06T11:10:09.257Z,20.79
2023-07-06T11:12:21.397Z,20.95
2023-07-06T11:14:34.527Z,21.20
2023-07-06T11:16:56.922Z,21.30
2023-07-06T11:18:59.893Z,21.54
2023-07-06T11:21:14.443Z,21.61
2023-07-06T11:23:22.436Z,21.88
2023-07-06T11:25:29.683Z,22.11
2023-07-06T11:27:36.185Z,22.37
2023-07-06T11:29:39.381Z,22.30
2023-07-06T11:31:50.140Z,22.65
2023-07-06T11:34:05.092Z,22.89
2023-07-06T11:36:17.602Z,22.70
2023-07-06T11:38:23.148Z,22.64
2023-07-06T11:40:35.325Z,22.82
2023-07-06T11:42:50.987Z,22.80
2023-07-06T11:44:56.262Z,22.71
2023-07-06T11:47:09.361Z,22.50
2023-07-06T11:49:22.023Z,22.43
2023-07-06T11:51:25.051Z,22.51
2023-07-06T11:53:36.567Z,22.50
2023-07-06T11:55:48.558Z,22.61
2023-07-06T11:58:06.387Z,22.74
2023-07-06T12:00:24.057Z,22.71
2023-07-06T12:02:28.750Z,22.45
2023-07-06T12:04:31.348Z,22.41
2023-07-06T12:06:33.418Z,22.21
2023-07-06T12:08:38.448Z,22.22
2023-07-06T12:10:41.059Z,22.18
2023-07-06T12:12:47.128Z,22.10
2023-07-06T12:14:53.064Z,22.17
2023-07-06T12:16:56.412Z,22.36
2023-07-06T12:19:04.815Z,22.74
2023-07-06T12:21:13.987Z,22.93
2023-07-06T12:23:16.207Z,22.95
2023-07-06T12:25:20.426Z,23.23
2023-07-06T12:27:22.818Z,23.41
2023-07-06T12:29:28.620Z,23.64
2023-07-06T12:31:32.301Z,23.70
2023-07-06T12:33:35.776Z,23.84
2023-07-06T12:35:39.324Z,23.97
2023-07-06T12:37:44.675Z,23.86
2023-07-06T12:39:49.231Z,24.03
2023-07-06T12:41:53.065Z,24.26
2023-07-06T12:43:55.282Z,24.27
2023-07-06T12:46:00.307Z,24.24
2023-07-06T12:48:06.436Z,24.37
2023-07-06T12:50:17.898Z,24.22
2023-07-06T12:52:24.895Z,23.99
2023-07-06T12:54:31.137Z,24.05
2023-07-06T12:56:33.351Z,23.66
2023-07-06T12:58:38.007Z,23.65
2023-07-06T13:00:40.083Z,23.79
2023-07-06T13:02:43.805Z,23.47
2023-07-06T13:04:49.264Z,23.49
2023-07-06T13:06:54.139Z,23.49
2023-07-06T13:09:00.587Z,23.30
2023-07-06T13:11:06.198Z,23.16
2023-07-06T13:13:18.656Z,23.15
2023-07-06T13:15:25.444Z,23.38
2023-07-06T13:17:28.543Z,23.53
2023-07-06T13:19:34.619Z,23.68
2023-07-06T13:21:38.521Z,23.96
2023-07-06T13:23:40.856Z,23.97
2023-07-06T13:25:46.496Z,24.11
2023-07-06T13:27:49.970Z,24.19
2023-07-06T13:29:52.036Z,24.51
2023-07-06T13:31:55.605Z,24.65
2023-07-06T13:33:58.944Z,24.67
2023-07-06T13:36:00.997Z,24.75
2023-07-06T13:38:05.621Z,24.90
2023-07-06T13:40:13.732Z,25.13
2023-07-06T13:42:22.853Z,25.17
2023-07-06T13:44:25.817Z,25.30
2023-07-06T13:46:28.787Z,24.87
2023-07-06T13:48:31.111Z,24.84
2023-07-06T13:50:33.488Z,24.35
2023-07-06T13:52:35.769Z,24.53
2023-07-06T13:54:37.876Z,24.87
2023-07-06T13:56:43.972Z,24.99
2023-07-06T13:58:46.359Z,25.29
2023-07-06T14:00:49.018Z,25.17
2023-07-06T14:02:52.543Z,25.19
2023-07-06T14:04:54.843Z,25.59
2023-07-06T14:06:57.703Z,25.71
2023-07-06T14:08:59.919Z,25.65
2023-07-06T14:11:02.778Z,25.59
2023-07-06T14:13:05.175Z,25.74
2023-07-06T14:15:10.673Z,25.74
2023-07-06T14:17:12.816Z,25.83
2023-07-06T14:19:15.443Z,25.88
2023-07-06T14:21:24.124Z,25.96
2023-07-06T14:23:27.839Z,25.84
2023-07-06T14:25:30.561Z,26.06
2023-07-06T14:27:33.028Z,26.28
2023-07-06T14:29:35.269Z,26.29
2023-07-06T14:31:39.202Z,26.30
2023-07-06T14:33:41.544Z,26.17
2023-07-06T14:35:44.900Z,26.24
2023-07-06T14:37:48.331Z,26.14
2023-07-06T14:39:50.462Z,25.83
2023-07-06T14:41:52.553Z,25.94
2023-07-06T14:43:54.644Z,25.95
2023-07-06T14:45:57.760Z,26.01
2023-07-06T14:48:01.605Z,26.14
2023-07-06T14:50:07.082Z,25.91
2023-07-06T14:52:09.411Z,26.11
2023-07-06T14:54:11.630Z,26.09
2023-07-06T14:56:14.139Z,25.86
2023-07-06T14:58:16.260Z,26.07
2023-07-06T15:00:19.419Z,26.19
2023-07-06T15:02:22.905Z,26.36
2023-07-06T15:04:25.010Z,26.07
2023-07-06T15:06:27.259Z,25.97
2023-07-06T15:08:29.233Z,26.30
2023-07-06T15:10:31.920Z,25.93
2023-07-06T15:12:34.307Z,25.84
2023-07-06T15:14:37.043Z,25.64
2023-07-06T15:16:39.172Z,25.65
2023-07-06T15:18:41.415Z,25.49
2023-07-06T15:20:44.550Z,25.59
2023-07-06T15:22:46.662Z,25.27
2023-07-06T15:24:49.016Z,25.22
2023-07-06T15:26:51.468Z,25.21
2023-07-06T15:28:53.711Z,25.66
2023-07-06T15:30:55.701Z,25.50
2023-07-06T15:32:59.122Z,25.91
2023-07-06T15:35:02.712Z,26.03
2023-07-06T15:37:05.238Z,26.18
2023-07-06T15:39:07.935Z,26.29
2023-07-06T15:41:10.480Z,25.69
2023-07-06T15:43:13.668Z,25.25
2023-07-06T15:45:16.100Z,25.02
2023-07-06T15:47:18.493Z,24.68
2023-07-06T15:49:22.027Z,24.38
2023-07-06T15:51:24.730Z,24.75
2023-07-06T15:53:28.519Z,24.75
2023-07-06T15:55:30.844Z,24.76
2023-07-06T15:57:33.006Z,24.49
2023-07-06T15:59:35.131Z,24.35
2023-07-06T16:01:39.050Z,24.26
2023-07-06T16:03:41.849Z,24.32
2023-07-06T16:05:45.456Z,23.82
2023-07-06T16:07:48.906Z,24.06
2023-07-06T16:09:51.581Z,23.96
2023-07-06T16:11:53.837Z,23.90
2023-07-06T16:14:10.397Z,24.10
2023-07-06T16:16:18.343Z,24.00
2023-07-06T16:18:20.460Z,23.83
2023-07-06T16:20:22.769Z,23.69
2023-07-06T16:22:25.097Z,23.86
2023-07-06T16:24:27.461Z,23.78
2023-07-06T16:26:29.690Z,23.95
2023-07-06T16:28:31.991Z,23.94
2023-07-06T16:30:34.437Z,23.77
2023-07-06T16:32:36.818Z,23.55
2023-07-06T16:34:39.139Z,23.81
2023-07-06T16:36:41.419Z,23.57
2023-07-06T16:38:46.572Z,23.45
2023-07-06T16:40:48.818Z,23.43
2023-07-06T16:42:50.971Z,23.40
2023-07-06T16:44:53.888Z,23.38
2023-07-06T16:46:56.347Z,23.36
2023-07-06T16:48:59.306Z,23.01
2023-07-06T16:51:04.013Z,23.09
2023-07-06T16:53:06.367Z,22.97
2023-07-06T16:55:09.081Z,22.76
2023-07-06T16:57:11.328Z,23.05
2023-07-06T16:59:13.809Z,23.02
2023-07-06T17:01:16.601Z,23.00
2023-07-06T17:03:20.640Z,23.00
2023-07-06T17:05:25.194Z,23.15
2023-07-06T17:07:27.623Z,23.19
2023-07-06T17:09:32.109Z,22.91
2023-07-06T17:11:34.432Z,22.94
2023-07-06T17:13:38.497Z,23.22
2023-07-06T17:15:40.922Z,23.02
2023-07-06T17:17:43.496Z,22.92
2023-07-06T17:19:47.109Z,22.90
2023-07-06T17:21:49.380Z,23.07
2023-07-06T17:23:51.937Z,23.14
2023-07-06T17:25:54.171Z,22.69
2023-07-06T17:27:56.508Z,22.84
2023-07-06T17:29:58.968Z,22.87
2023-07-06T17:32:03.320Z,22.84
2023-07-06T17:34:05.923Z,22.70
2023-07-06T17:36:09.323Z,22.92
2023-07-06T17:38:12.290Z,22.53
2023-07-06T17:40:14.948Z,22.80
2023-07-06T17:42:17.367Z,22.63
2023-07-06T17:44:20.218Z,22.69
2023-07-06T17:46:22.521Z,22.69
2023-07-06T17:48:26.483Z,22.73
2023-07-06T17:50:28.766Z,22.83
2023-07-06T17:52:30.961Z,22.76
2023-07-06T17:54:33.124Z,22.82
2023-07-06T17:56:35.474Z,22.63
2023-07-06T17:58:38.007Z,22.69
2023-07-06T18:00:40.235Z,22.56
2023-07-06T18:02:42.531Z,22.74
2023-07-06T18:04:44.635Z,22.53
2023-07-06T18:06:46.789Z,22.32
2023-07-06T18:08:49.022Z,22.38
2023-07-06T18:10:51.280Z,22.22
2023-07-06T18:12:54.902Z,22.20
2023-07-06T18:14:57.052Z,22.30
2023-07-06T18:17:01.213Z,22.25
2023-07-06T18:19:03.331Z,22.30
2023-07-06T18:21:06.297Z,22.39
2023-07-06T18:23:09.186Z,22.35
2023-07-06T18:25:13.196Z,22.47
2023-07-06T18:27:15.371Z,22.20
2023-07-06T18:29:17.530Z,22.15
2023-07-06T18:31:19.716Z,22.21
2023-07-06T18:33:21.816Z,21.90
2023-07-06T18:35:24.108Z,22.24
2023-07-06T18:37:26.406Z,22.17
2023-07-06T18:39:28.695Z,22.15
2023-07-06T18:41:30.924Z,21.98
2023-07-06T18:43:33.194Z,22.09
2023-07-06T18:45:42.192Z,21.84
2023-07-06T18:47:44.971Z,22.00
2023-07-06T18:49:50.162Z,21.99
2023-07-06T18:51:52.570Z,22.06
2023-07-06T18:53:54.801Z,21.89
2023-07-06T18:55:57.450Z,21.83
2023-07-06T18:58:00.093Z,21.80
2023-07-06T19:00:02.924Z,21.78
2023-07-06T19:02:07.562Z,21.48
2023-07-06T19:04:09.801Z,21.65
2023-07-06T19:06:18.319Z,21.70
2023-07-06T19:08:20.860Z,21.76
2023-07-06T19:10:23.985Z,21.61
2023-07-06T19:12:26.160Z,21.55
2023-07-06T19:14:28.346Z,21.72
2023-07-06T19:16:30.320Z,21.61
2023-07-06T19:18:32.291Z,21.72
2023-07-06T19:20:34.486Z,21.79
2023-07-06T19:22:52.191Z,21.82
2023-07-06T19:24:54.341Z,21.73
2023-07-06T19:26:56.530Z,21.67
2023-07-06T19:28:58.592Z,21.64
2023-07-06T19:31:01.116Z,21.57
2023-07-06T19:33:04.003Z,21.54
2023-07-06T19:35:06.621Z,21.58
2023-07-06T19:37:08.805Z,21.32
2023-07-06T19:39:10.958Z,21.40
2023-07-06T19:41:13.450Z,21.40
2023-07-06T19:43:15.609Z,21.44
2023-07-06T19:45:18.168Z,21.41
2023-07-06T19:47:20.473Z,21.20
2023-07-06T19:49:23.055Z,21.32
2023-07-06T19:51:25.506Z,21.28
2023-07-06T19:53:27.597Z,21.37
2023-07-06T19:55:30.729Z,21.29
2023-07-06T19:57:43.179Z,21.35
2023-07-06T19:59:46.901Z,21.27
2023-07-06T20:01:49.227Z,21.34
2023-07-06T20:03:51.320Z,21.24
2023-07-06T20:05:59.631Z,21.27
2023-07-06T20:08:01.899Z,21.11
2023-07-06T20:10:06.045Z,21.14
2023-07-06T20:12:08.529Z,21.04
2023-07-06T20:14:10.645Z,21.06
2023-07-06T20:16:13.413Z,20.96
2023-07-06T20:18:16.830Z,20.91
2023-07-06T20:20:18.953Z,20.83
2023-07-06T20:22:21.010Z,20.90
2023-07-06T20:24:23.279Z,20.84
2023-07-06T20:26:25.485Z,20.77
2023-07-06T20:28:28.399Z,20.74
2023-07-06T20:30:30.706Z,20.69
2023-07-06T20:32:34.412Z,20.64
2023-07-06T20:34:36.572Z,20.63
2023-07-06T20:36:38.689Z,20.49
2023-07-06T20:38:40.923Z,20.56
2023-07-06T20:40:43.363Z,20.58
2023-07-06T20:42:45.571Z,20.62
2023-07-06T20:44:48.802Z,20.66
2023-07-06T20:46:51.872Z,20.59
2023-07-06T20:48:54.046Z,20.58
2023-07-06T20:50:56.459Z,20.55
2023-07-06T20:52:58.938Z,20.48
2023-07-06T20:55:00.991Z,20.43
2023-07-06T20:57:03.391Z,20.35
2023-07-06T20:59:05.389Z,20.28
2023-07-06T21:01:07.643Z,20.29
2023-07-06T21:03:10.958Z,20.32
2023-07-06T21:05:13.017Z,20.45
2023-07-06T21:07:15.174Z,20.21
2023-07-06T21:09:17.268Z,20.34
2023-07-06T21:11:19.389Z,20.32
2023-07-06T21:13:21.692Z,20.25
2023-07-06T21:15:24.470Z,20.10
2023-07-06T21:17:26.625Z,20.24
2023-07-06T21:19:28.925Z,20.24
2023-07-06T21:21:31.097Z,20.17
2023-07-06T21:23:33.360Z,20.03
2023-07-06T21:25:35.484Z,20.09
2023-07-06T21:27:37.607Z,20.09
2023-07-06T21:29:40.912Z,19.94
2023-07-06T21:31:44.941Z,20.02
2023-07-06T21:33:47.172Z,20.10
2023-07-06T21:35:49.329Z,19.98
2023-07-06T21:37:53.350Z,20.03
2023-07-06T21:39:55.566Z,20.09
2023-07-06T21:41:57.651Z,19.97
2023-07-06T21:43:59.741Z,19.89
2023-07-06T21:46:01.909Z,19.99
2023-07-06T21:48:04.008Z,20.00
2023-07-06T21:50:06.872Z,20.05
2023-07-06T21:52:08.945Z,20.00
2023-07-06T21:54:11.234Z,19.88
2023-07-06T21:56:14.543Z,19.73
2023-07-06T21:58:16.869Z,19.83
2023-07-06T22:00:19.154Z,19.71
2023-07-06T22:02:21.292Z,19.60
2023-07-06T22:04:23.527Z,19.60
2023-07-06T22:06:35.339Z,19.62
2023-07-06T22:08:37.917Z,19.63
2023-07-06T22:10:42.085Z,19.68
2023-07-06T22:12:45.464Z,19.53
2023-07-06T22:14:47.555Z,19.57
2023-07-06T22:16:49.777Z,19.62
2023-07-06T22:18:52.126Z,19.50
2023-07-06T22:21:01.225Z,19.53
2023-07-06T22:23:11.173Z,19.63
2023-07-06T22:25:16.060Z,19.54
2023-07-06T22:27:18.316Z,19.67
2023-07-06T22:29:25.764Z,19.60
2023-07-06T22:31:27.957Z,19.49
2023-07-06T22:33:32.650Z,19.35
2023-07-06T22:37:37.409Z,19.39
2023-07-06T22:39:39.734Z,19.42
2023-07-06T22:41:42.085Z,19.45
2023-07-06T22:43:44.571Z,19.36
2023-07-06T22:45:48.489Z,19.41
2023-07-06T22:47:50.782Z,19.28
2023-07-06T22:54:04.414Z,19.35
2023-07-06T22:56:06.549Z,19.25
2023-07-06T22:58:09.464Z,19.36
2023-07-06T23:02:13.845Z,19.20
2023-07-06T23:04:15.962Z,19.27
2023-07-06T23:08:19.251Z,19.19
2023-07-06T23:12:25.542Z,18.96
2023-07-06T23:14:27.521Z,19.11
2023-07-06T23:16:30.354Z,18.81
2023-07-06T23:18:33.597Z,18.79
2023-07-06T23:20:36.215Z,18.80
2023-07-06T23:24:40.694Z,18.90
2023-07-06T23:26:42.784Z,18.94
2023-07-06T23:28:44.775Z,18.83
2023-07-06T23:30:47.078Z,18.82
2023-07-06T23:32:50.530Z,18.87
2023-07-06T23:36:56.908Z,18.86
2023-07-06T23:41:01.316Z,18.83
2023-07-06T23:43:03.761Z,18.85
2023-07-06T23:45:06.930Z,18.68
2023-07-06T23:47:08.970Z,18.86
2023-07-06T23:49:11.130Z,18.80
2023-07-06T23:51:13.142Z,18.73
2023-07-06T23:53:15.171Z,18.87
2023-07-06T23:57:23.108Z,18.71
2023-07-06T23:59:27.177Z,18.80
